createdAt,value
2023-04-13T00:00:58.608Z,980.86
2023-04-13T00:01:58.677Z,980.92
2023-04-13T00:02:58.822Z,980.95
2023-04-13T00:03:58.985Z,980.92
2023-04-13T00:04:58.609Z,980.98
2023-04-13T00:05:58.568Z,980.96
2023-04-13T00:06:58.559Z,980.95
2023-04-13T00:07:58.560Z,980.95
2023-04-13T00:08:58.547Z,980.97
2023-04-13T00:09:58.580Z,980.93
2023-04-13T00:10:58.533Z,980.90
2023-04-13T00:11:58.534Z,980.92
2023-04-13T00:12:58.526Z,980.97
2023-04-13T00:13:58.740Z,980.96
2023-04-13T00:14:58.533Z,980.94
2023-04-13T00:15:58.512Z,980.91
2023-04-13T00:16:58.530Z,980.88
2023-04-13T00:17:58.520Z,980.88
2023-04-13T00:18:58.478Z,980.95
2023-04-13T00:19:58.487Z,980.90
2023-04-13T00:20:58.448Z,980.88
2023-04-13T00:21:58.439Z,980.86
2023-04-13T00:22:58.441Z,980.86
2023-04-13T00:23:58.633Z,980.88
2023-04-13T00:24:58.478Z,980.85
2023-04-13T00:25:58.431Z,980.84
2023-04-13T00:26:58.424Z,980.84
2023-04-13T00:27:58.395Z,980.82
2023-04-13T00:28:58.388Z,980.80
2023-04-13T00:29:58.417Z,980.82
2023-04-13T00:30:58.418Z,980.80
2023-04-13T00:31:58.400Z,980.82
2023-04-13T00:32:58.380Z,980.85
2023-04-13T00:33:58.638Z,980.83
2023-04-13T00:34:58.382Z,980.80
2023-04-13T00:35:58.366Z,980.85
2023-04-13T00:36:58.337Z,980.80
2023-04-13T00:37:58.331Z,980.84
2023-04-13T00:38:58.316Z,980.82
2023-04-13T00:39:58.364Z,980.82
2023-04-13T00:40:58.314Z,980.81
2023-04-13T00:41:58.297Z,980.77
2023-04-13T00:42:58.312Z,980.78
2023-04-13T00:43:58.432Z,980.88
2023-04-13T00:44:58.314Z,980.83
2023-04-13T00:45:58.336Z,980.83
2023-04-13T00:46:58.262Z,980.83
2023-04-13T00:47:58.376Z,980.80
2023-04-13T00:48:58.270Z,980.84
2023-04-13T00:49:58.306Z,980.79
2023-04-13T00:50:58.235Z,980.86
2023-04-13T00:51:58.234Z,980.81
2023-04-13T00:52:58.270Z,980.86
2023-04-13T00:53:58.326Z,980.92
2023-04-13T00:54:58.267Z,980.90
2023-04-13T00:55:58.195Z,980.86
2023-04-13T00:56:58.190Z,980.76
2023-04-13T00:57:58.178Z,980.74
2023-04-13T00:58:58.169Z,980.72
2023-04-13T00:59:58.209Z,980.73
2023-04-13T01:00:58.186Z,980.88
2023-04-13T01:01:58.240Z,980.87
2023-04-13T01:02:58.218Z,980.89
2023-04-13T01:03:58.403Z,980.86
2023-04-13T01:04:58.199Z,980.78
2023-04-13T01:05:58.125Z,980.77
2023-04-13T01:06:58.116Z,980.80
2023-04-13T01:07:58.127Z,980.79
2023-04-13T01:08:58.113Z,980.83
2023-04-13T01:09:58.123Z,980.80
2023-04-13T01:10:58.097Z,980.73
2023-04-13T01:11:58.079Z,980.79
2023-04-13T01:12:58.074Z,980.71
2023-04-13T01:13:58.201Z,980.70
2023-04-13T01:14:58.090Z,980.71
2023-04-13T01:15:58.100Z,980.75
2023-04-13T01:16:58.050Z,980.73
2023-04-13T01:17:58.054Z,980.72
2023-04-13T01:18:58.028Z,980.68
2023-04-13T01:19:58.057Z,980.74
2023-04-13T01:20:59.013Z,980.65
2023-04-13T01:21:58.021Z,980.61
2023-04-13T01:22:58.006Z,980.68
2023-04-13T01:23:58.247Z,980.68
2023-04-13T01:24:58.019Z,980.71
2023-04-13T01:25:57.983Z,980.69
2023-04-13T01:26:57.974Z,980.66
2023-04-13T01:27:57.959Z,980.69
2023-04-13T01:28:57.959Z,980.63
2023-04-13T01:29:58.004Z,980.69
2023-04-13T01:30:57.968Z,980.66
2023-04-13T01:31:57.988Z,980.55
2023-04-13T01:32:58.987Z,980.67
2023-04-13T01:33:58.262Z,980.63
2023-04-13T01:34:57.931Z,980.58
2023-04-13T01:35:57.902Z,980.62
2023-04-13T01:36:57.897Z,980.59
2023-04-13T01:37:57.886Z,980.63
2023-04-13T01:38:57.872Z,980.56
2023-04-13T01:39:57.893Z,980.61
2023-04-13T01:40:57.857Z,980.56
2023-04-13T01:41:57.847Z,980.55
2023-04-13T01:42:57.841Z,980.63
2023-04-13T01:43:58.154Z,980.65
2023-04-13T01:44:57.859Z,980.53
2023-04-13T01:45:57.821Z,980.53
2023-04-13T01:46:57.975Z,980.58
2023-04-13T01:47:57.876Z,980.64
2023-04-13T01:48:57.812Z,980.66
2023-04-13T01:49:57.827Z,980.66
2023-04-13T01:50:57.792Z,980.64
2023-04-13T01:51:57.783Z,980.73
2023-04-13T01:52:57.778Z,980.68
2023-04-13T01:53:58.088Z,980.65
2023-04-13T01:54:57.785Z,980.56
2023-04-13T01:55:57.745Z,980.65
2023-04-13T01:56:57.747Z,980.62
2023-04-13T01:57:57.741Z,980.60
2023-04-13T01:58:57.726Z,980.64
2023-04-13T01:59:57.751Z,980.57
2023-04-13T02:00:57.743Z,980.59
2023-04-13T02:01:57.712Z,980.56
2023-04-13T02:02:58.884Z,980.64
2023-04-13T02:03:58.240Z,980.57
2023-04-13T02:04:57.729Z,980.49
2023-04-13T02:05:57.675Z,980.58
2023-04-13T02:06:57.669Z,980.53
2023-04-13T02:07:57.666Z,980.57
2023-04-13T02:08:57.653Z,980.65
2023-04-13T02:09:57.672Z,980.63
2023-04-13T02:10:57.643Z,980.58
2023-04-13T02:11:57.623Z,980.59
2023-04-13T02:12:57.620Z,980.63
2023-04-13T02:13:57.824Z,980.55
2023-04-13T02:14:57.645Z,980.67
2023-04-13T02:15:57.651Z,980.63
2023-04-13T02:16:57.618Z,980.62
2023-04-13T02:17:57.612Z,980.61
2023-04-13T02:18:57.577Z,980.64
2023-04-13T02:19:57.620Z,980.59
2023-04-13T02:20:57.567Z,980.62
2023-04-13T02:21:57.573Z,980.59
2023-04-13T02:22:57.551Z,980.58
2023-04-13T02:23:57.791Z,980.51
2023-04-13T02:24:57.592Z,980.63
2023-04-13T02:25:57.527Z,980.61
2023-04-13T02:26:57.522Z,980.58
2023-04-13T02:27:57.513Z,980.57
2023-04-13T02:28:57.501Z,980.65
2023-04-13T02:29:57.552Z,980.68
2023-04-13T02:30:57.496Z,980.70
2023-04-13T02:31:57.510Z,980.70
2023-04-13T02:32:57.544Z,980.61
2023-04-13T02:33:57.894Z,980.71
2023-04-13T02:34:57.497Z,980.71
2023-04-13T02:35:57.459Z,980.74
2023-04-13T02:36:57.460Z,980.67
2023-04-13T02:37:57.447Z,980.61
2023-04-13T02:38:57.448Z,980.68
2023-04-13T02:39:57.450Z,980.68
2023-04-13T02:40:57.437Z,980.71
2023-04-13T02:41:57.433Z,980.66
2023-04-13T02:42:57.422Z,980.64
2023-04-13T02:43:57.841Z,980.71
2023-04-13T02:44:57.423Z,980.76
2023-04-13T02:45:57.455Z,980.79
2023-04-13T02:46:57.402Z,980.78
2023-04-13T02:47:57.412Z,980.78
2023-04-13T02:48:57.367Z,980.77
2023-04-13T02:49:57.381Z,980.75
2023-04-13T02:50:57.344Z,980.65
2023-04-13T02:51:57.344Z,980.61
2023-04-13T02:52:57.326Z,980.61
2023-04-13T02:53:58.120Z,980.70
2023-04-13T02:54:58.375Z,980.71
2023-04-13T02:55:57.308Z,980.71
2023-04-13T02:56:57.296Z,980.68
2023-04-13T02:57:57.304Z,980.75
2023-04-13T02:58:57.285Z,980.75
2023-04-13T02:59:57.267Z,980.91
2023-04-13T03:00:57.309Z,980.82
2023-04-13T03:01:57.312Z,980.77
2023-04-13T03:02:57.351Z,980.74
2023-04-13T03:03:57.425Z,980.78
2023-04-13T03:04:57.441Z,980.84
2023-04-13T03:05:57.258Z,980.82
2023-04-13T03:06:57.219Z,980.80
2023-04-13T03:07:57.220Z,980.87
2023-04-13T03:08:57.218Z,980.75
2023-04-13T03:09:57.194Z,980.82
2023-04-13T03:10:57.235Z,980.81
2023-04-13T03:11:57.257Z,980.90
2023-04-13T03:12:57.169Z,980.89
2023-04-13T03:13:57.381Z,980.92
2023-04-13T03:14:57.165Z,980.81
2023-04-13T03:15:57.183Z,980.88
2023-04-13T03:16:57.197Z,980.89
2023-04-13T03:17:57.173Z,980.86
2023-04-13T03:18:57.138Z,980.85
2023-04-13T03:19:57.129Z,980.83
2023-04-13T03:20:57.161Z,980.85
2023-04-13T03:21:57.105Z,980.89
2023-04-13T03:22:57.120Z,980.86
2023-04-13T03:23:57.254Z,980.78
2023-04-13T03:24:57.082Z,980.87
2023-04-13T03:25:57.126Z,980.79
2023-04-13T03:26:57.077Z,980.81
2023-04-13T03:27:57.056Z,980.83
2023-04-13T03:28:57.067Z,980.84
2023-04-13T03:29:57.046Z,980.86
2023-04-13T03:30:58.110Z,980.79
2023-04-13T03:31:57.033Z,980.80
2023-04-13T03:32:57.048Z,980.80
2023-04-13T03:33:57.277Z,980.78
2023-04-13T03:34:57.010Z,980.81
2023-04-13T03:35:57.045Z,980.81
2023-04-13T03:36:56.994Z,980.83
2023-04-13T03:37:56.983Z,980.78
2023-04-13T03:38:56.981Z,980.81
2023-04-13T03:39:56.968Z,980.85
2023-04-13T03:40:56.987Z,980.82
2023-04-13T03:41:56.960Z,980.79
2023-04-13T03:42:56.947Z,980.84
2023-04-13T03:43:57.136Z,980.85
2023-04-13T03:44:56.946Z,980.86
2023-04-13T03:45:57.024Z,980.80
2023-04-13T03:46:56.934Z,980.79
2023-04-13T03:47:56.948Z,980.81
2023-04-13T03:48:56.907Z,980.83
2023-04-13T03:49:56.896Z,980.85
2023-04-13T03:50:56.963Z,980.83
2023-04-13T03:51:56.975Z,980.84
2023-04-13T03:52:56.877Z,980.84
2023-04-13T03:53:57.141Z,980.82
2023-04-13T03:54:56.911Z,980.81
2023-04-13T03:55:56.888Z,980.86
2023-04-13T03:56:56.838Z,980.87
2023-04-13T03:57:56.830Z,980.88
2023-04-13T03:58:56.858Z,980.84
2023-04-13T03:59:56.810Z,980.87
2023-04-13T04:00:56.805Z,980.87
2023-04-13T04:01:56.857Z,980.85
2023-04-13T04:02:56.833Z,980.89
2023-04-13T04:03:57.014Z,980.86
2023-04-13T04:04:56.788Z,980.88
2023-04-13T04:05:56.774Z,980.90
2023-04-13T04:06:56.793Z,980.89
2023-04-13T04:07:56.753Z,980.97
2023-04-13T04:08:56.744Z,980.95
2023-04-13T04:09:56.747Z,980.92
2023-04-13T04:10:56.737Z,980.93
2023-04-13T04:11:56.762Z,980.92
2023-04-13T04:12:56.721Z,980.90
2023-04-13T04:13:56.861Z,980.87
2023-04-13T04:14:56.706Z,980.84
2023-04-13T04:15:57.183Z,980.95
2023-04-13T04:16:56.686Z,980.90
2023-04-13T04:17:56.739Z,980.87
2023-04-13T04:18:56.680Z,980.99
2023-04-13T04:19:56.675Z,980.92
2023-04-13T04:20:57.129Z,980.92
2023-04-13T04:21:56.669Z,980.98
2023-04-13T04:22:56.655Z,980.96
2023-04-13T04:23:56.809Z,980.96
2023-04-13T04:24:56.636Z,980.90
2023-04-13T04:25:56.658Z,980.99
2023-04-13T04:26:56.618Z,980.91
2023-04-13T04:27:56.616Z,980.97
2023-04-13T04:28:56.601Z,980.89
2023-04-13T04:29:56.603Z,981.00
2023-04-13T04:30:56.626Z,981.00
2023-04-13T04:31:56.644Z,981.03
2023-04-13T04:32:56.619Z,981.01
2023-04-13T04:33:56.863Z,981.08
2023-04-13T04:34:56.559Z,981.05
2023-04-13T04:35:56.582Z,981.15
2023-04-13T04:36:58.973Z,981.11
2023-04-13T04:37:58.541Z,981.13
2023-04-13T04:38:56.528Z,981.16
2023-04-13T04:39:56.528Z,981.18
2023-04-13T04:40:56.545Z,981.14
2023-04-13T04:41:56.509Z,981.18
2023-04-13T04:42:56.526Z,981.21
2023-04-13T04:43:56.739Z,981.19
2023-04-13T04:44:56.482Z,981.17
2023-04-13T04:45:56.553Z,981.20
2023-04-13T04:46:56.467Z,981.21
2023-04-13T04:47:56.482Z,981.34
2023-04-13T04:48:56.457Z,981.28
2023-04-13T04:49:56.441Z,981.19
2023-04-13T04:50:56.460Z,981.30
2023-04-13T04:52:29.187Z,981.20
2023-04-13T04:52:56.420Z,981.25
2023-04-13T04:53:56.479Z,981.22
2023-04-13T04:54:56.401Z,981.27
2023-04-13T04:55:56.431Z,981.27
2023-04-13T04:56:56.394Z,981.27
2023-04-13T04:57:56.375Z,981.26
2023-04-13T04:58:56.390Z,981.28
2023-04-13T04:59:56.365Z,981.30
2023-04-13T05:00:56.407Z,981.30
2023-04-13T05:01:56.436Z,981.27
2023-04-13T05:02:56.468Z,981.20
2023-04-13T05:03:56.335Z,981.30
2023-04-13T05:04:56.411Z,981.29
2023-04-13T05:05:56.320Z,981.29
2023-04-13T05:06:56.353Z,981.31
2023-04-13T05:07:56.313Z,981.23
2023-04-13T05:08:56.302Z,981.36
2023-04-13T05:09:56.326Z,981.35
2023-04-13T05:10:56.285Z,981.28
2023-04-13T05:11:56.274Z,981.25
2023-04-13T05:12:56.274Z,981.26
2023-04-13T05:13:56.267Z,981.30
2023-04-13T05:14:56.259Z,981.34
2023-04-13T05:15:56.331Z,981.35
2023-04-13T05:16:56.242Z,981.38
2023-04-13T05:17:56.313Z,981.37
2023-04-13T05:18:56.239Z,981.33
2023-04-13T05:19:56.217Z,981.36
2023-04-13T05:20:56.237Z,981.35
2023-04-13T05:21:56.212Z,981.35
2023-04-13T05:22:56.192Z,981.39
2023-04-13T05:23:56.181Z,981.41
2023-04-13T05:24:56.171Z,981.44
2023-04-13T05:25:56.192Z,981.41
2023-04-13T05:26:56.162Z,981.37
2023-04-13T05:27:56.160Z,981.39
2023-04-13T05:28:56.187Z,981.37
2023-04-13T05:29:56.139Z,981.48
2023-04-13T05:30:56.167Z,981.40
2023-04-13T05:31:56.174Z,981.47
2023-04-13T05:32:56.208Z,981.46
2023-04-13T05:33:56.114Z,981.46
2023-04-13T05:34:56.097Z,981.52
2023-04-13T05:35:56.133Z,981.53
2023-04-13T05:36:56.108Z,981.45
2023-04-13T05:37:57.251Z,981.51
2023-04-13T05:38:57.181Z,981.56
2023-04-13T05:39:56.083Z,981.49
2023-04-13T05:40:56.091Z,981.62
2023-04-13T05:41:56.050Z,981.66
2023-04-13T05:42:56.045Z,981.58
2023-04-13T05:43:56.037Z,981.57
2023-04-13T05:44:56.028Z,981.56
2023-04-13T05:45:56.083Z,981.54
2023-04-13T05:46:56.032Z,981.55
2023-04-13T05:47:56.024Z,981.57
2023-04-13T05:48:55.996Z,981.54
2023-04-13T05:49:55.989Z,981.59
2023-04-13T05:50:56.026Z,981.56
2023-04-13T05:51:55.975Z,981.64
2023-04-13T05:52:55.971Z,981.64
2023-04-13T05:53:55.962Z,981.59
2023-04-13T05:54:55.961Z,981.64
2023-04-13T05:55:55.999Z,981.68
2023-04-13T05:56:55.936Z,981.65
2023-04-13T05:57:55.929Z,981.65
2023-04-13T05:58:55.923Z,981.71
2023-04-13T05:59:55.919Z,981.76
2023-04-13T06:00:56.359Z,981.68
2023-04-13T06:01:55.977Z,981.70
2023-04-13T06:02:56.067Z,981.74
2023-04-13T06:03:56.064Z,981.64
2023-04-13T06:04:55.972Z,981.76
2023-04-13T06:05:55.911Z,981.68
2023-04-13T06:06:55.897Z,981.71
2023-04-13T06:07:55.870Z,981.77
2023-04-13T06:08:55.853Z,981.69
2023-04-13T06:09:55.837Z,981.66
2023-04-13T06:10:55.936Z,981.79
2023-04-13T06:11:55.848Z,981.70
2023-04-13T06:12:55.822Z,981.75
2023-04-13T06:13:57.516Z,981.80
2023-04-13T06:14:55.812Z,981.72
2023-04-13T06:15:55.821Z,981.78
2023-04-13T06:16:55.855Z,981.79
2023-04-13T06:17:55.835Z,981.68
2023-04-13T06:18:55.780Z,981.71
2023-04-13T06:19:55.762Z,981.76
2023-04-13T06:20:55.788Z,981.72
2023-04-13T06:21:55.784Z,981.73
2023-04-13T06:22:55.754Z,981.72
2023-04-13T06:23:55.740Z,981.70
2023-04-13T06:24:56.744Z,981.74
2023-04-13T06:25:55.746Z,981.66
2023-04-13T06:26:55.721Z,981.66
2023-04-13T06:27:55.712Z,981.76
2023-04-13T06:28:55.709Z,981.70
2023-04-13T06:29:55.695Z,981.74
2023-04-13T06:30:55.773Z,981.69
2023-04-13T06:31:55.683Z,981.76
2023-04-13T06:32:55.718Z,981.67
2023-04-13T06:33:55.673Z,981.76
2023-04-13T06:34:55.651Z,981.70
2023-04-13T06:35:55.685Z,981.67
2023-04-13T06:36:55.643Z,981.71
2023-04-13T06:37:55.636Z,981.68
2023-04-13T06:38:55.624Z,981.71
2023-04-13T06:39:55.624Z,981.73
2023-04-13T06:40:55.613Z,981.71
2023-04-13T06:41:55.628Z,981.66
2023-04-13T06:42:55.601Z,981.73
2023-04-13T06:43:55.592Z,981.76
2023-04-13T06:44:55.602Z,981.73
2023-04-13T06:45:55.604Z,981.68
2023-04-13T06:46:55.677Z,981.81
2023-04-13T06:47:55.640Z,981.75
2023-04-13T06:48:55.563Z,981.69
2023-04-13T06:49:55.558Z,981.73
2023-04-13T06:50:55.541Z,981.78
2023-04-13T06:51:55.567Z,981.78
2023-04-13T06:52:55.543Z,981.82
2023-04-13T06:53:55.528Z,981.77
2023-04-13T06:54:55.528Z,981.78
2023-04-13T06:55:55.512Z,981.77
2023-04-13T06:56:55.536Z,981.84
2023-04-13T06:57:55.499Z,981.83
2023-04-13T06:58:56.960Z,981.78
2023-04-13T06:59:55.486Z,981.88
2023-04-13T07:00:55.544Z,981.84
2023-04-13T07:01:55.607Z,981.88
2023-04-13T07:02:55.705Z,981.90
2023-04-13T07:03:55.543Z,981.88
2023-04-13T07:04:55.511Z,981.92
2023-04-13T07:05:55.435Z,981.83
2023-04-13T07:06:55.454Z,981.88
2023-04-13T07:07:55.421Z,981.91
2023-04-13T07:08:55.413Z,981.92
2023-04-13T07:09:55.410Z,981.90
2023-04-13T07:10:55.416Z,981.94
2023-04-13T07:11:55.414Z,982.02
2023-04-13T07:12:55.385Z,981.97
2023-04-13T07:13:55.378Z,982.00
2023-04-13T07:14:55.373Z,981.97
2023-04-13T07:15:55.388Z,981.96
2023-04-13T07:16:55.371Z,981.97
2023-04-13T07:17:55.413Z,981.97
2023-04-13T07:18:55.360Z,982.01
2023-04-13T07:19:55.325Z,982.02
2023-04-13T07:20:55.316Z,982.01
2023-04-13T07:21:55.334Z,982.04
2023-04-13T07:22:55.302Z,982.03
2023-04-13T07:23:55.295Z,981.97
2023-04-13T07:24:55.292Z,981.96
2023-04-13T07:25:55.282Z,982.01
2023-04-13T07:26:55.297Z,981.99
2023-04-13T07:27:55.271Z,981.99
2023-04-13T07:28:55.264Z,982.04
2023-04-13T07:29:55.267Z,982.00
2023-04-13T07:30:55.249Z,982.00
2023-04-13T07:31:55.307Z,982.00
2023-04-13T07:32:55.281Z,982.00
2023-04-13T07:33:55.224Z,982.03
2023-04-13T07:34:55.215Z,982.04
2023-04-13T07:35:55.214Z,982.00
2023-04-13T07:36:55.226Z,981.98
2023-04-13T07:37:55.195Z,981.97
2023-04-13T07:38:55.186Z,982.04
2023-04-13T07:39:55.198Z,982.04
2023-04-13T07:40:55.179Z,982.03
2023-04-13T07:41:55.186Z,982.02
2023-04-13T07:42:55.157Z,982.06
2023-04-13T07:43:55.143Z,982.11
2023-04-13T07:44:55.177Z,982.08
2023-04-13T07:45:55.150Z,982.15
2023-04-13T07:46:55.224Z,982.12
2023-04-13T07:47:55.194Z,982.20
2023-04-13T07:48:55.133Z,982.26
2023-04-13T07:49:55.111Z,982.22
2023-04-13T07:50:55.135Z,982.30
2023-04-13T07:51:55.105Z,982.23
2023-04-13T07:52:55.084Z,982.23
2023-04-13T07:53:55.074Z,982.26
2023-04-13T07:54:55.071Z,982.30
2023-04-13T07:55:55.054Z,982.32
2023-04-13T07:56:55.093Z,982.35
2023-04-13T07:57:55.037Z,982.35
2023-04-13T07:58:55.029Z,982.35
2023-04-13T07:59:55.026Z,982.38
2023-04-13T08:00:55.018Z,982.38
2023-04-13T08:01:55.075Z,982.39
2023-04-13T08:02:55.219Z,982.33
2023-04-13T08:03:55.167Z,982.40
2023-04-13T08:04:55.085Z,982.37
2023-04-13T08:05:54.977Z,982.38
2023-04-13T08:06:55.001Z,982.31
2023-04-13T08:07:54.965Z,982.42
2023-04-13T08:08:54.951Z,982.21
2023-04-13T08:09:54.960Z,982.29
2023-04-13T08:10:54.934Z,982.35
2023-04-13T08:11:54.964Z,982.34
2023-04-13T08:12:54.922Z,982.32
2023-04-13T08:13:54.911Z,982.39
2023-04-13T08:14:54.903Z,982.38
2023-04-13T08:15:54.926Z,982.37
2023-04-13T08:16:55.026Z,982.34
2023-04-13T08:17:54.935Z,982.38
2023-04-13T08:18:54.877Z,982.36
2023-04-13T08:19:54.877Z,982.37
2023-04-13T08:20:54.873Z,982.48
2023-04-13T08:21:54.859Z,982.36
2023-04-13T08:22:54.873Z,982.35
2023-04-13T08:23:54.866Z,982.38
2023-04-13T08:24:54.849Z,982.41
2023-04-13T08:25:54.910Z,982.44
2023-04-13T08:26:54.839Z,982.42
2023-04-13T08:27:54.838Z,982.45
2023-04-13T08:28:54.805Z,982.43
2023-04-13T08:29:54.807Z,982.41
2023-04-13T08:30:54.782Z,982.44
2023-04-13T08:31:54.816Z,982.41
2023-04-13T08:32:54.820Z,982.50
2023-04-13T08:33:57.132Z,982.49
2023-04-13T08:34:54.756Z,982.46
2023-04-13T08:35:54.747Z,982.49
2023-04-13T08:36:54.739Z,982.46
2023-04-13T08:37:55.049Z,982.49
2023-04-13T08:38:54.729Z,982.41
2023-04-13T08:39:54.714Z,982.41
2023-04-13T08:40:54.702Z,982.56
2023-04-13T08:41:54.711Z,982.55
2023-04-13T08:42:54.744Z,982.42
2023-04-13T08:43:54.710Z,982.48
2023-04-13T08:44:54.701Z,982.48
2023-04-13T08:45:54.690Z,982.53
2023-04-13T08:46:54.657Z,982.53
2023-04-13T08:47:54.726Z,982.54
2023-04-13T08:48:54.687Z,982.52
2023-04-13T08:49:54.693Z,982.64
2023-04-13T08:50:54.705Z,982.63
2023-04-13T08:51:54.642Z,982.46
2023-04-13T08:52:54.648Z,982.61
2023-04-13T08:53:54.602Z,982.51
2023-04-13T08:54:54.604Z,982.53
2023-04-13T08:55:54.591Z,982.61
2023-04-13T08:56:54.618Z,982.67
2023-04-13T08:57:54.575Z,982.56
2023-04-13T08:58:54.563Z,982.66
2023-04-13T08:59:54.558Z,982.63
2023-04-13T09:00:54.586Z,982.65
2023-04-13T09:01:54.819Z,982.62
2023-04-13T09:03:03.647Z,982.64
2023-04-13T09:03:56.729Z,982.67
2023-04-13T09:04:54.562Z,982.64
2023-04-13T09:05:54.522Z,982.68
2023-04-13T09:06:54.536Z,982.69
2023-04-13T09:07:54.495Z,982.73
2023-04-13T09:08:54.491Z,982.65
2023-04-13T09:09:54.481Z,982.59
2023-04-13T09:10:54.483Z,982.66
2023-04-13T09:11:54.493Z,982.72
2023-04-13T09:12:54.561Z,982.69
2023-04-13T09:13:54.452Z,982.81
2023-04-13T09:14:54.460Z,982.72
2023-04-13T09:15:54.449Z,982.65
2023-04-13T09:16:54.479Z,982.78
2023-04-13T09:17:54.456Z,982.68
2023-04-13T09:18:54.414Z,982.81
2023-04-13T09:19:54.415Z,982.72
2023-04-13T09:20:54.395Z,982.81
2023-04-13T09:21:54.410Z,982.78
2023-04-13T09:22:54.370Z,982.77
2023-04-13T09:23:54.362Z,982.80
2023-04-13T09:24:54.360Z,982.76
2023-04-13T09:25:54.347Z,982.73
2023-04-13T09:26:54.390Z,982.71
2023-04-13T09:27:54.344Z,982.71
2023-04-13T09:28:55.916Z,982.69
2023-04-13T09:29:55.332Z,982.81
2023-04-13T09:30:54.352Z,982.81
2023-04-13T09:31:54.344Z,982.82
2023-04-13T09:32:54.299Z,982.85
2023-04-13T09:33:54.307Z,982.85
2023-04-13T09:34:54.291Z,982.79
2023-04-13T09:35:54.281Z,982.85
2023-04-13T09:36:55.782Z,982.85
2023-04-13T09:37:55.266Z,982.74
2023-04-13T09:38:54.248Z,982.82
2023-04-13T09:39:54.261Z,982.83
2023-04-13T09:40:54.420Z,982.80
2023-04-13T09:41:54.268Z,982.76
2023-04-13T09:42:54.225Z,982.77
2023-04-13T09:43:54.222Z,982.80
2023-04-13T09:44:54.211Z,982.81
2023-04-13T09:45:54.225Z,982.79
2023-04-13T09:46:54.368Z,982.84
2023-04-13T09:47:54.233Z,982.80
2023-04-13T09:48:54.179Z,982.89
2023-04-13T09:49:54.173Z,982.79
2023-04-13T09:50:54.173Z,982.83
2023-04-13T09:51:54.174Z,982.84
2023-04-13T09:52:54.274Z,982.87
2023-04-13T09:53:54.146Z,982.84
2023-04-13T09:54:54.185Z,982.83
2023-04-13T09:55:54.140Z,982.82
2023-04-13T09:56:54.122Z,982.89
2023-04-13T09:57:54.458Z,983.00
2023-04-13T09:58:54.138Z,982.90
2023-04-13T09:59:54.113Z,982.84
2023-04-13T10:00:54.125Z,982.96
2023-04-13T10:01:54.205Z,982.93
2023-04-13T10:02:54.128Z,982.96
2023-04-13T10:03:55.101Z,982.95
2023-04-13T10:04:54.138Z,982.96
2023-04-13T10:05:59.590Z,982.99
2023-04-13T10:06:56.039Z,982.99
2023-04-13T10:07:54.062Z,982.99
2023-04-13T10:08:54.032Z,982.99
2023-04-13T10:09:54.039Z,983.08
2023-04-13T10:10:54.015Z,982.99
2023-04-13T10:11:54.007Z,983.08
2023-04-13T10:12:54.058Z,983.05
2023-04-13T10:13:54.007Z,983.09
2023-04-13T10:14:53.984Z,983.09
2023-04-13T10:15:54.017Z,983.08
2023-04-13T10:16:54.010Z,983.05
2023-04-13T10:17:54.034Z,983.11
2023-04-13T10:18:53.953Z,983.03
2023-04-13T10:19:53.962Z,983.03
2023-04-13T10:20:53.944Z,983.04
2023-04-13T10:21:54.823Z,983.05
2023-04-13T10:22:53.955Z,982.93
2023-04-13T10:23:53.923Z,983.01
2023-04-13T10:24:53.911Z,982.99
2023-04-13T10:25:53.920Z,983.07
2023-04-13T10:26:53.902Z,983.09
2023-04-13T10:27:53.932Z,983.07
2023-04-13T10:28:53.879Z,983.08
2023-04-13T10:29:53.872Z,983.16
2023-04-13T10:30:54.771Z,983.07
2023-04-13T10:31:54.974Z,983.06
2023-04-13T10:32:53.922Z,983.15
2023-04-13T10:33:53.860Z,983.10
2023-04-13T10:34:53.847Z,983.15
2023-04-13T10:35:53.825Z,983.08
2023-04-13T10:36:53.837Z,983.09
2023-04-13T10:37:53.846Z,983.08
2023-04-13T10:38:53.818Z,983.03
2023-04-13T10:39:53.799Z,983.01
2023-04-13T10:40:53.795Z,983.15
2023-04-13T10:41:53.787Z,983.12
2023-04-13T10:42:53.817Z,983.13
2023-04-13T10:43:53.766Z,983.09
2023-04-13T10:44:53.765Z,983.12
2023-04-13T10:45:53.761Z,983.15
2023-04-13T10:46:53.782Z,983.14
2023-04-13T10:47:53.781Z,983.10
2023-04-13T10:48:53.736Z,983.16
2023-04-13T10:49:53.747Z,983.19
2023-04-13T10:50:53.716Z,983.21
2023-04-13T10:51:53.706Z,983.15
2023-04-13T10:53:27.121Z,983.22
2023-04-13T10:53:53.692Z,983.20
2023-04-13T10:54:53.688Z,983.26
2023-04-13T10:55:53.674Z,983.35
2023-04-13T10:56:53.668Z,983.29
2023-04-13T10:57:53.686Z,983.26
2023-04-13T10:58:53.673Z,983.24
2023-04-13T10:59:58.582Z,983.28
2023-04-13T11:00:55.641Z,983.23
2023-04-13T11:01:53.726Z,983.24
2023-04-13T11:02:53.828Z,983.29
2023-04-13T11:04:03.795Z,983.28
2023-04-13T11:04:55.787Z,983.35
2023-04-13T11:05:53.617Z,983.30
2023-04-13T11:06:53.607Z,983.31
2023-04-13T11:07:55.460Z,983.29
2023-04-13T11:08:54.640Z,983.34
2023-04-13T11:09:53.583Z,983.29
2023-04-13T11:10:53.621Z,983.35
2023-04-13T11:11:53.566Z,983.37
2023-04-13T11:12:53.601Z,983.28
2023-04-13T11:13:53.555Z,983.27
2023-04-13T11:14:53.549Z,983.21
2023-04-13T11:15:53.557Z,983.30
2023-04-13T11:16:58.549Z,983.28
2023-04-13T11:17:55.585Z,983.29
2023-04-13T11:18:53.574Z,983.28
2023-04-13T11:19:53.508Z,983.34
2023-04-13T11:20:53.551Z,983.28
2023-04-13T11:21:53.496Z,983.25
2023-04-13T11:22:53.514Z,983.36
2023-04-13T11:23:53.480Z,983.42
2023-04-13T11:24:53.493Z,983.31
2023-04-13T11:25:53.466Z,983.30
2023-04-13T11:26:53.462Z,983.34
2023-04-13T11:27:53.477Z,983.34
2023-04-13T11:28:53.458Z,983.24
2023-04-13T11:29:53.451Z,983.15
2023-04-13T11:30:53.431Z,983.24
2023-04-13T11:31:53.427Z,983.15
2023-04-13T11:32:53.505Z,983.29
2023-04-13T11:33:53.426Z,983.36
2023-04-13T11:34:53.390Z,983.26
2023-04-13T11:35:53.383Z,983.27
2023-04-13T11:36:53.381Z,983.20
2023-04-13T11:37:53.402Z,983.18
2023-04-13T11:38:53.361Z,983.19
2023-04-13T11:39:53.365Z,983.06
2023-04-13T11:40:58.954Z,983.15
2023-04-13T11:41:55.334Z,983.16
2023-04-13T11:42:53.380Z,983.13
2023-04-13T11:43:53.321Z,983.09
2023-04-13T11:44:53.330Z,983.14
2023-04-13T11:45:53.344Z,983.12
2023-04-13T11:46:53.310Z,983.13
2023-04-13T11:47:53.393Z,983.18
2023-04-13T11:48:53.281Z,983.24
2023-04-13T11:49:53.281Z,983.13
2023-04-13T11:50:53.275Z,983.08
2023-04-13T11:51:53.292Z,983.09
2023-04-13T11:52:53.286Z,983.04
2023-04-13T11:53:53.245Z,983.09
2023-04-13T11:54:53.243Z,983.09
2023-04-13T11:55:53.962Z,983.11
2023-04-13T11:56:54.249Z,983.16
2023-04-13T11:57:53.272Z,983.13
2023-04-13T11:58:53.285Z,983.08
2023-04-13T11:59:53.209Z,983.06
2023-04-13T12:00:53.197Z,983.07
2023-04-13T12:02:01.591Z,983.05
2023-04-13T12:04:04.888Z,983.06
2023-04-13T12:04:55.265Z,983.09
2023-04-13T12:05:53.276Z,983.07
2023-04-13T12:06:53.364Z,983.05
2023-04-13T12:07:53.603Z,983.05
2023-04-13T12:08:57.489Z,983.02
2023-04-13T12:09:58.136Z,983.06
2023-04-13T12:11:15.768Z,983.07
2023-04-13T12:12:20.449Z,983.04
2023-04-13T12:12:57.047Z,983.03
2023-04-13T12:14:05.957Z,983.05
2023-04-13T12:15:08.928Z,983.12
2023-04-13T12:17:59.956Z,983.05
2023-04-13T12:18:55.447Z,983.11
2023-04-13T12:19:54.810Z,983.12
2023-04-13T12:20:54.097Z,983.11
2023-04-13T12:21:53.342Z,983.11
2023-04-13T12:23:00.223Z,983.12
2023-04-13T12:23:55.110Z,983.12
2023-04-13T12:24:53.607Z,983.14
2023-04-13T12:25:54.599Z,983.07
2023-04-13T12:27:53.978Z,983.08
2023-04-13T12:28:52.998Z,983.21
2023-04-13T12:29:52.965Z,983.22
2023-04-13T12:30:52.975Z,983.32
2023-04-13T12:31:53.008Z,983.36
2023-04-13T12:32:53.008Z,983.32